Time;durP1;ratioP1;P1;durP2;ratioP2;P2;SDS_P1;SDS_P2;PMS_P1;PMS_P2;Temp;Humidity;BMP_temperature;BMP_pressure;BME280_temperature;BME280_humidity;BME280_pressure;Samples;Min_cycle;Max_cycle;Signal;HPM_P1;HPM_P2
2022/08/29 00:02:03;;;;;;;1.73;0.80;;;18.70;62.60;;;;;;4952255;28;21150;-75
2022/08/29 00:04:29;;;;;;;1.70;0.80;;;18.70;62.90;;;;;;4919777;29;20192;-73
2022/08/29 00:06:55;;;;;;;3.47;1.10;;;18.70;63.20;;;;;;4943957;29;20176;-74
2022/08/29 00:09:21;;;;;;;5.47;1.10;;;18.60;63.30;;;;;;4935358;28;20180;-75
2022/08/29 00:11:47;;;;;;;3.70;1.20;;;18.60;63.70;;;;;;4945181;29;20585;-74
2022/08/29 00:14:13;;;;;;;2.50;0.90;;;18.60;63.90;;;;;;4953250;29;20616;-75
2022/08/29 00:16:38;;;;;;;1.83;0.83;;;18.60;64.20;;;;;;4953479;29;20579;-74
2022/08/29 00:19:04;;;;;;;2.40;0.90;;;18.50;64.30;;;;;;4952168;29;20568;-73
2022/08/29 00:21:30;;;;;;;4.93;1.10;;;18.50;64.70;;;;;;4952971;28;20366;-73
2022/08/29 00:23:56;;;;;;;1.70;0.80;;;18.50;65.10;;;;;;4953349;29;20180;-74
2022/08/29 00:26:22;;;;;;;2.33;1.33;;;18.40;65.30;;;;;;4953348;29;21028;-74
2022/08/29 00:28:48;;;;;;;3.07;1.00;;;18.40;65.60;;;;;;4952044;29;20614;-74
2022/08/29 00:31:13;;;;;;;1.90;1.07;;;18.40;65.90;;;;;;4953026;28;20635;-74
2022/08/29 00:33:39;;;;;;;1.90;0.90;;;18.40;66.50;;;;;;4953151;29;20207;-73
2022/08/29 00:36:06;;;;;;;6.10;1.27;;;18.30;66.70;;;;;;4953439;29;20168;-73
2022/08/29 00:38:32;;;;;;;2.60;0.80;;;18.30;67.20;;;;;;4953133;29;20575;-74
2022/08/29 00:40:58;;;;;;;1.87;0.90;;;18.30;67.60;;;;;;4952974;28;20770;-74
2022/08/29 00:43:30;;;;;;;1.73;0.90;;;18.30;67.80;;;;;;4953101;29;20172;-74
2022/08/29 00:46:25;;;;;;;2.30;1.10;;;18.20;68.20;;;;;;4953140;29;20176;-74
2022/08/29 00:49:10;;;;;;;1.83;0.73;;;18.20;69.10;;;;;;4952026;29;21007;-73
2022/08/29 00:51:37;;;;;;;3.10;1.03;;;18.20;69.20;;;;;;4952857;28;20619;-73
2022/08/29 00:54:07;;;;;;;1.90;1.00;;;18.20;68.90;;;;;;4952944;29;20674;-73
2022/08/29 00:56:34;;;;;;;2.30;0.80;;;18.10;69.60;;;;;;4953263;29;20972;-74
2022/08/29 00:59:26;;;;;;;3.20;1.10;;;18.10;69.60;;;;;;4952974;29;20583;-74
2022/08/29 01:01:51;;;;;;;3.80;1.00;;;18.10;70.50;;;;;;4952085;29;20591;-73
2022/08/29 01:04:17;;;;;;;3.03;0.87;;;18.10;70.30;;;;;;4935909;29;20568;-74
2022/08/29 01:06:43;;;;;;;2.33;1.00;;;18.00;70.60;;;;;;4953169;29;20179;-73
2022/08/29 01:09:10;;;;;;;3.37;0.97;;;18.00;71.10;;;;;;4952935;29;20208;-74
2022/08/29 01:14:23;;;;;;;4.23;1.37;;;17.90;71.70;;;;;;4956035;29;20722;-74
2022/08/29 01:16:51;;;;;;;1.93;1.03;;;17.90;72.20;;;;;;4956374;29;20683;-73
2022/08/29 01:19:28;;;;;;;3.07;1.37;;;17.80;72.50;;;;;;4956131;29;20623;-73
2022/08/29 01:22:04;;;;;;;2.37;1.10;;;17.80;72.90;;;;;;4956147;29;20571;-73
2022/08/29 01:24:35;;;;;;;2.10;1.20;;;17.80;73.60;;;;;;4956329;29;20611;-73
2022/08/29 01:27:01;;;;;;;4.00;0.90;;;17.70;73.50;;;;;;4956283;29;20600;-73
2022/08/29 01:29:27;;;;;;;1.97;0.90;;;17.80;74.10;;;;;;4938588;28;20576;-73
2022/08/29 01:31:54;;;;;;;2.07;0.80;;;17.70;74.60;;;;;;4956147;29;20987;-73
2022/08/29 01:34:19;;;;;;;5.77;1.10;;;17.70;74.90;;;;;;4956022;29;20615;-73
2022/08/29 01:36:50;;;;;;;3.03;1.20;;;17.70;75.40;;;;;;4938950;29;20576;-73
2022/08/29 01:39:18;;;;;;;5.30;1.07;;;17.70;76.00;;;;;;4954477;29;20179;-74
2022/08/29 01:41:44;;;;;;;2.67;1.00;;;17.70;76.20;;;;;;4955920;29;20659;-74
2022/08/29 01:44:12;;;;;;;2.03;1.10;;;17.60;76.50;;;;;;4955972;29;20568;-73
2022/08/29 01:46:39;;;;;;;3.57;1.00;;;17.60;77.00;;;;;;4955887;29;20967;-74
2022/08/29 01:49:08;;;;;;;3.33;1.20;;;17.60;77.20;;;;;;4955882;29;20575;-74
2022/08/29 01:51:36;;;;;;;2.80;1.27;;;17.60;77.80;;;;;;4955356;28;20983;-74
2022/08/29 01:54:04;;;;;;;2.83;1.37;;;17.60;78.20;;;;;;4922875;29;20631;-74
2022/08/29 01:56:33;;;;;;;2.30;0.87;;;17.60;78.60;;;;;;4955476;29;20971;-74
2022/08/29 01:59:01;;;;;;;3.13;1.20;;;17.50;79.00;;;;;;4955769;29;20568;-74
2022/08/29 02:01:31;;;;;;;3.37;1.37;;;17.50;79.50;;;;;;4938187;29;20600;-74
2022/08/29 02:03:59;;;;;;;2.30;0.90;;;17.50;80.10;;;;;;4955736;29;20560;-74
2022/08/29 02:06:26;;;;;;;3.70;1.40;;;17.50;80.50;;;;;;4955671;29;20602;-74
2022/08/29 02:08:53;;;;;;;1.93;1.10;;;17.50;81.90;;;;;;4955520;29;20575;-73
2022/08/29 02:11:19;;;;;;;2.43;1.07;;;17.50;81.40;;;;;;4953865;28;20607;-74
2022/08/29 02:13:51;;;;;;;2.00;1.00;;;17.40;81.50;;;;;;4938328;29;20627;-73
2022/08/29 02:16:18;;;;;;;2.40;1.03;;;17.40;82.20;;;;;;4955354;29;20560;-74
2022/08/29 02:18:44;;;;;;;2.73;1.10;;;17.40;82.10;;;;;;4955513;29;20568;-73
2022/08/29 02:21:13;;;;;;;3.50;1.10;;;17.40;82.50;;;;;;4954922;28;20596;-74
2022/08/29 02:23:39;;;;;;;2.63;1.00;;;17.30;83.20;;;;;;4955029;28;20595;-73
2022/08/29 02:26:05;;;;;;;3.40;1.00;;;17.30;83.50;;;;;;4955195;29;20568;-73
2022/08/29 02:28:32;;;;;;;2.80;1.47;;;17.30;83.90;;;;;;4954049;29;20606;-73
2022/08/29 02:30:58;;;;;;;3.50;1.20;;;17.30;84.20;;;;;;4954881;28;20655;-73
2022/08/29 02:33:24;;;;;;;2.67;1.40;;;17.20;84.30;;;;;;4955157;29;20643;-73
2022/08/29 02:35:52;;;;;;;3.97;1.30;;;17.20;84.60;;;;;;4954977;29;20918;-74
2022/08/29 02:38:18;;;;;;;3.80;1.27;;;17.20;85.00;;;;;;4955077;29;20564;-73
2022/08/29 02:40:45;;;;;;;2.37;1.00;;;17.20;85.40;;;;;;4954755;28;20755;-73
2022/08/29 02:43:11;;;;;;;2.90;0.90;;;17.20;86.10;;;;;;4954865;29;21022;-74
2022/08/29 02:45:39;;;;;;;2.67;1.10;;;17.10;86.40;;;;;;4937920;29;20643;-74
2022/08/29 02:48:06;;;;;;;2.37;0.70;;;17.10;87.80;;;;;;4954963;29;20176;-74
2022/08/29 02:50:32;;;;;;;6.90;1.63;;;17.10;87.10;;;;;;4921623;29;20630;-79
2022/08/29 02:52:58;;;;;;;3.93;1.70;;;17.10;87.50;;;;;;4954857;29;20575;-80
2022/08/29 02:55:24;;;;;;;2.80;1.13;;;17.00;87.90;;;;;;4955048;29;20576;-79
2022/08/29 02:57:51;;;;;;;2.33;0.93;;;17.00;88.50;;;;;;4955674;29;20168;-79
2022/08/29 03:00:22;;;;;;;3.10;1.17;;;17.00;89.00;;;;;;4956109;28;20699;-78
2022/08/29 03:02:48;;;;;;;3.17;1.00;;;16.90;89.40;;;;;;4954812;29;20576;-78
2022/08/29 03:05:16;;;;;;;2.43;1.10;;;16.90;89.70;;;;;;4956286;29;21145;-79
2022/08/29 03:07:42;;;;;;;2.03;0.90;;;16.90;90.00;;;;;;4930255;29;20596;-79
2022/08/29 03:10:09;;;;;;;4.43;1.17;;;16.90;90.20;;;;;;4943221;29;21135;-79
2022/08/29 03:12:36;;;;;;;4.70;1.37;;;16.90;90.50;;;;;;4959966;29;20180;-79
2022/08/29 03:15:04;;;;;;;2.23;1.17;;;16.80;90.60;;;;;;4965500;29;21025;-79
2022/08/29 03:17:30;;;;;;;1.80;1.10;;;16.80;90.80;;;;;;4962025;29;20611;-80
2022/08/29 03:19:57;;;;;;;3.80;1.17;;;16.80;90.90;;;;;;4955074;28;20608;-79
2022/08/29 03:22:23;;;;;;;2.10;1.27;;;16.70;91.00;;;;;;4937400;29;20646;-79
2022/08/29 03:24:49;;;;;;;6.13;1.20;;;16.70;91.20;;;;;;4954485;29;20580;-78
2022/08/29 03:27:15;;;;;;;2.30;1.10;;;16.70;91.50;;;;;;4955500;29;20584;-78
2022/08/29 03:29:41;;;;;;;1.90;1.00;;;16.70;91.60;;;;;;4954032;28;20936;-79
2022/08/29 03:32:06;;;;;;;2.90;1.10;;;16.70;91.80;;;;;;4937026;29;20188;-79
2022/08/29 03:34:33;;;;;;;4.40;1.40;;;16.70;91.90;;;;;;4954280;29;20199;-79
2022/08/29 03:36:59;;;;;;;3.00;1.00;;;16.60;92.10;;;;;;4936721;29;20619;-79
2022/08/29 03:39:25;;;;;;;2.47;0.90;;;16.60;92.20;;;;;;4953946;28;21085;-79
2022/08/29 03:41:51;;;;;;;3.00;0.90;;;16.60;92.30;;;;;;4953801;29;20588;-79
2022/08/29 03:44:17;;;;;;;3.43;1.13;;;16.60;92.40;;;;;;4953834;29;20599;-79
2022/08/29 03:46:43;;;;;;;2.10;0.90;;;16.60;92.50;;;;;;4936806;29;20674;-79
2022/08/29 03:49:09;;;;;;;1.80;1.00;;;16.60;92.70;;;;;;4953860;29;20223;-78
2022/08/29 03:51:38;;;;;;;4.40;0.90;;;16.60;92.90;;;;;;4953545;28;20776;-78
2022/08/29 03:54:05;;;;;;;5.77;1.53;;;16.60;93.10;;;;;;4953770;29;20624;-78
2022/08/29 03:56:31;;;;;;;2.87;1.17;;;16.60;93.20;;;;;;4936687;29;20595;-78
2022/08/29 03:58:58;;;;;;;3.90;1.57;;;16.60;93.30;;;;;;4954045;29;20564;-78
2022/08/29 04:01:27;;;;;;;3.50;1.43;;;16.60;93.40;;;;;;4953300;28;20691;-80
2022/08/29 04:03:54;;;;;;;2.43;0.93;;;16.60;93.60;;;;;;4936582;29;20579;-78
2022/08/29 04:06:21;;;;;;;2.90;1.30;;;16.60;93.60;;;;;;4953943;29;20572;-79
2022/08/29 04:08:48;;;;;;;4.07;1.10;;;16.50;93.70;;;;;;4954111;29;20587;-79
2022/08/29 04:11:15;;;;;;;2.23;1.10;;;16.50;93.90;;;;;;4953799;28;20592;-80
2022/08/29 04:13:41;;;;;;;4.70;1.53;;;16.50;94.00;;;;;;4954650;29;20615;-78
2022/08/29 04:16:13;;;;;;;2.10;1.20;;;16.50;94.30;;;;;;4936557;29;20574;-78
2022/08/29 04:18:39;;;;;;;2.63;1.23;;;16.50;94.70;;;;;;4954010;29;21006;-78
2022/08/29 04:21:06;;;;;;;8.50;1.50;;;16.50;94.60;;;;;;4936001;29;20600;-79
2022/08/29 04:23:33;;;;;;;7.13;1.17;;;16.50;94.80;;;;;;4953313;29;20568;-79
2022/08/29 04:25:59;;;;;;;3.50;1.10;;;16.40;94.90;;;;;;4920388;29;20911;-79
2022/08/29 04:28:27;;;;;;;3.07;1.13;;;16.40;95.00;;;;;;4953262;29;20631;-79
2022/08/29 04:30:53;;;;;;;4.23;1.10;;;16.40;95.10;;;;;;4935850;29;20600;-80
2022/08/29 04:33:22;;;;;;;3.07;1.30;;;16.40;95.20;;;;;;4953227;29;20611;-78
2022/08/29 04:35:48;;;;;;;2.83;1.20;;;16.40;95.50;;;;;;4935819;29;20584;-79
2022/08/29 04:38:14;;;;;;;3.13;1.00;;;16.40;95.70;;;;;;4949301;29;20569;-78
2022/08/29 04:40:41;;;;;;;3.20;1.57;;;16.40;95.80;;;;;;4933719;29;20632;-79
2022/08/29 04:43:08;;;;;;;3.20;1.37;;;16.30;95.90;;;;;;4933943;29;20616;-79
2022/08/29 04:45:34;;;;;;;2.43;1.20;;;16.30;96.00;;;;;;4934081;29;20569;-80
2022/08/29 04:48:02;;;;;;;4.22;1.50;;;16.30;96.20;;;;;;4918827;29;20557;-80
2022/08/29 04:50:29;;;;;;;3.50;1.50;;;16.30;96.30;;;;;;4937412;29;20209;-79
2022/08/29 04:52:54;;;;;;;2.80;1.30;;;16.30;96.40;;;;;;4920752;29;20697;-79
2022/08/29 04:55:22;;;;;;;3.70;1.37;;;16.30;96.60;;;;;;4937822;29;20620;-80
2022/08/29 04:57:51;;;;;;;3.50;1.80;;;16.30;96.70;;;;;;4937988;29;20564;-79
2022/08/29 05:00:20;;;;;;;3.23;1.10;;;16.30;96.80;;;;;;4937401;29;20645;-79
2022/08/29 05:02:46;;;;;;;3.45;1.58;;;16.30;96.90;;;;;;4937569;29;20963;-79
2022/08/29 05:05:14;;;;;;;2.57;1.40;;;16.30;97.10;;;;;;4920739;29;20260;-80
2022/08/29 05:07:41;;;;;;;5.30;2.57;;;16.40;97.30;;;;;;4920587;29;21142;-79
2022/08/29 05:10:16;;;;;;;5.30;1.20;;;16.40;97.30;;;;;;4937354;29;20616;-79
2022/08/29 05:12:42;;;;;;;2.73;1.30;;;16.40;97.40;;;;;;4920775;29;20590;-79
2022/08/29 05:15:08;;;;;;;4.57;1.20;;;16.40;97.90;;;;;;4937554;29;20711;-79
2022/08/29 05:17:35;;;;;;;2.93;1.17;;;16.50;97.80;;;;;;4937808;29;20573;-78
2022/08/29 05:20:03;;;;;;;3.13;1.70;;;16.50;97.90;;;;;;4937460;29;21194;-78
2022/08/29 05:22:29;;;;;;;3.20;1.17;;;16.60;98.00;;;;;;4937377;29;21460;-79
2022/08/29 05:24:55;;;;;;;3.90;1.40;;;16.60;98.00;;;;;;4924672;29;20572;-79
2022/08/29 05:27:21;;;;;;;2.87;1.30;;;16.60;98.00;;;;;;4938183;29;20177;-79
2022/08/29 05:29:50;;;;;;;4.33;1.80;;;16.70;98.00;;;;;;4936982;29;20722;-79
2022/08/29 05:32:18;;;;;;;6.47;1.97;;;16.80;98.20;;;;;;4937152;29;20605;-80
2022/08/29 05:34:46;;;;;;;2.97;1.50;;;16.80;98.20;;;;;;4936995;29;20620;-80
2022/08/29 05:37:15;;;;;;;4.90;2.07;;;16.90;98.20;;;;;;4920001;29;20604;-80
2022/08/29 05:39:41;;;;;;;4.33;1.77;;;17.00;98.30;;;;;;4919705;29;20964;-79
2022/08/29 05:42:09;;;;;;;4.63;2.20;;;17.10;98.30;;;;;;4936836;29;20584;-79
2022/08/29 05:44:35;;;;;;;4.97;1.57;;;17.10;98.30;;;;;;4936972;29;20913;-79
2022/08/29 05:47:06;;;;;;;6.13;1.57;;;17.20;98.20;;;;;;4920234;29;21134;-78
2022/08/29 05:49:37;;;;;;;2.97;1.70;;;17.20;98.30;;;;;;4936379;29;20692;-78
2022/08/29 05:52:04;;;;;;;3.43;1.30;;;17.20;98.30;;;;;;4936785;29;21003;-77
2022/08/29 05:54:33;;;;;;;17.70;1.80;;;17.30;98.20;;;;;;4936532;29;20974;-77
2022/08/29 05:56:59;;;;;;;2.93;1.83;;;17.30;98.20;;;;;;4936852;29;20568;-77
2022/08/29 05:59:25;;;;;;;3.83;1.50;;;17.40;98.20;;;;;;4925173;28;20996;-77
2022/08/29 06:01:51;;;;;;;4.83;1.50;;;17.40;98.30;;;;;;4919166;29;20183;-77
2022/08/29 06:04:17;;;;;;;3.27;1.53;;;17.50;98.40;;;;;;4934986;29;20577;-78
2022/08/29 06:06:43;;;;;;;3.50;2.17;;;17.50;98.40;;;;;;4940651;29;20872;-78
2022/08/29 06:09:11;;;;;;;3.20;1.70;;;17.60;98.60;;;;;;4936114;29;20962;-78
2022/08/29 06:11:37;;;;;;;4.43;2.10;;;17.70;99.20;;;;;;4903541;29;20619;-77
2022/08/29 06:14:03;;;;;;;5.07;2.00;;;17.90;98.80;;;;;;4936147;29;21020;-78
2022/08/29 06:16:31;;;;;;;6.70;2.27;;;18.00;98.80;;;;;;4919166;29;20172;-77
2022/08/29 06:18:58;;;;;;;2.67;1.33;;;18.20;98.80;;;;;;4935936;29;20592;-78
2022/08/29 06:21:24;;;;;;;3.23;1.37;;;18.40;98.90;;;;;;4950011;29;20627;-77
2022/08/29 06:23:50;;;;;;;5.23;1.90;;;18.50;98.80;;;;;;4947116;29;20579;-78
2022/08/29 06:26:18;;;;;;;2.83;1.37;;;18.70;98.70;;;;;;4921866;29;20651;-78
2022/08/29 06:28:45;;;;;;;6.13;2.60;;;18.90;98.70;;;;;;4937292;29;21158;-79
2022/08/29 06:31:15;;;;;;;8.90;2.27;;;19.10;98.50;;;;;;4929839;29;20202;-78
2022/08/29 06:33:41;;;;;;;6.50;1.67;;;19.30;98.70;;;;;;4955036;29;21045;-78
2022/08/29 06:36:08;;;;;;;3.90;1.53;;;19.70;98.90;;;;;;4955049;29;21125;-78
2022/08/29 06:38:35;;;;;;;5.30;1.57;;;20.20;98.90;;;;;;4960124;29;20572;-77
2022/08/29 06:41:13;;;;;;;6.60;1.90;;;20.60;98.60;;;;;;4954708;28;20638;-77
2022/08/29 06:43:39;;;;;;;4.23;1.67;;;21.00;98.00;;;;;;4921899;29;20933;-78
2022/08/29 06:46:06;;;;;;;6.80;2.03;;;21.50;98.00;;;;;;4937643;29;20591;-78
2022/08/29 06:48:32;;;;;;;4.30;1.37;;;21.90;97.30;;;;;;4955455;29;20572;-78
2022/08/29 06:51:02;;;;;;;8.20;1.30;;;22.00;96.50;;;;;;4953677;28;20706;-78
2022/08/29 06:53:28;;;;;;;8.67;1.70;;;22.20;95.90;;;;;;4954634;29;20577;-78
2022/08/29 06:55:55;;;;;;;4.60;1.60;;;22.40;95.70;;;;;;4953775;29;20587;-79
2022/08/29 06:58:21;;;;;;;6.00;2.70;;;22.60;95.40;;;;;;4955692;29;20568;-79
2022/08/29 07:00:48;;;;;;;7.70;1.80;;;22.80;95.30;;;;;;4954975;28;20610;-78
2022/08/29 07:03:14;;;;;;;7.50;1.53;;;23.10;95.10;;;;;;4955579;29;20564;-78
2022/08/29 07:05:39;;;;;;;4.10;1.40;;;23.50;95.00;;;;;;4937464;29;20631;-76
2022/08/29 07:08:05;;;;;;;6.67;1.60;;;24.00;95.10;;;;;;4953428;29;20173;-78
2022/08/29 07:10:31;;;;;;;5.30;1.53;;;24.60;95.00;;;;;;4945692;28;20576;-78
2022/08/29 07:12:57;;;;;;;4.93;1.33;;;25.20;94.00;;;;;;4917942;29;20261;-77
2022/08/29 07:15:23;;;;;;;6.47;2.10;;;25.80;93.70;;;;;;4942969;29;20643;-77
2022/08/29 07:17:49;;;;;;;9.10;2.73;;;26.60;93.20;;;;;;4934524;29;20187;-78
2022/08/29 07:20:16;;;;;;;5.67;1.97;;;27.40;93.00;;;;;;4954212;29;20185;-77
2022/08/29 07:22:44;;;;;;;8.13;1.97;;;28.40;92.20;;;;;;4954296;29;20964;-78
2022/08/29 07:25:10;;;;;;;5.60;1.80;;;29.30;91.10;;;;;;4954639;29;20626;-79
2022/08/29 07:27:36;;;;;;;5.53;2.13;;;30.00;89.50;;;;;;4937038;29;20618;-78
2022/08/29 07:30:05;;;;;;;5.00;2.37;;;30.70;86.00;;;;;;4962549;28;20748;-78
2022/08/29 07:32:31;;;;;;;3.80;2.07;;;31.30;82.40;;;;;;4967537;28;20583;-78
2022/08/29 07:34:57;;;;;;;4.30;1.73;;;32.10;81.00;;;;;;4957997;28;20621;-78
2022/08/29 07:37:23;;;;;;;8.20;1.80;;;32.70;78.20;;;;;;4973839;28;20538;-79
2022/08/29 07:39:49;;;;;;;4.47;1.40;;;33.30;74.70;;;;;;4957605;28;20210;-78
2022/08/29 07:42:15;;;;;;;4.23;2.17;;;34.00;72.10;;;;;;4907214;29;20212;-77
2022/08/29 07:44:40;;;;;;;5.90;2.20;;;34.60;68.20;;;;;;4952131;29;20236;-76
2022/08/29 07:47:06;;;;;;;3.80;1.40;;;35.20;66.10;;;;;;4937351;29;20177;-77
2022/08/29 07:49:32;;;;;;;4.30;1.80;;;35.80;63.40;;;;;;4946050;29;20277;-77
2022/08/29 07:51:58;;;;;;;3.70;1.43;;;36.20;59.80;;;;;;4949622;29;20703;-78
2022/08/29 07:54:24;;;;;;;2.90;1.53;;;36.80;58.00;;;;;;4952052;28;20234;-77
2022/08/29 07:56:51;;;;;;;2.43;1.40;;;36.90;52.10;;;;;;4966096;28;20596;-78
2022/08/29 07:59:19;;;;;;;3.10;1.40;;;37.00;51.40;;;;;;4943867;29;20168;-78
2022/08/29 08:01:46;;;;;;;2.37;1.10;;;37.20;49.40;;;;;;4959995;29;20568;-78
2022/08/29 08:04:14;;;;;;;2.77;1.67;;;37.50;49.50;;;;;;4951172;28;20597;-77
2022/08/29 08:06:41;;;;;;;2.93;1.30;;;37.80;48.80;;;;;;4958459;28;20650;-78
2022/08/29 08:09:08;;;;;;;3.87;1.20;;;38.10;46.80;;;;;;4973718;28;20211;-78
2022/08/29 08:11:35;;;;;;;3.40;1.23;;;38.10;46.00;;;;;;4941110;28;20694;-77
2022/08/29 08:14:02;;;;;;;3.30;1.10;;;38.20;45.40;;;;;;4948880;29;20652;-78
2022/08/29 08:16:29;;;;;;;2.63;1.30;;;38.40;44.60;;;;;;4953601;29;20568;-77
2022/08/29 08:18:55;;;;;;;4.23;1.40;;;38.50;43.40;;;;;;4953404;29;20582;-77
2022/08/29 08:21:22;;;;;;;3.13;1.40;;;38.50;42.40;;;;;;4949639;28;21104;-77
2022/08/29 08:23:48;;;;;;;2.80;1.13;;;38.60;41.20;;;;;;4952580;29;20600;-77
2022/08/29 08:26:14;;;;;;;3.30;1.40;;;38.60;40.20;;;;;;4952906;29;20903;-76
2022/08/29 08:28:41;;;;;;;2.80;1.40;;;38.70;39.30;;;;;;4950851;29;20210;-77
2022/08/29 08:31:09;;;;;;;3.67;1.43;;;38.80;39.80;;;;;;4953647;28;20615;-77
2022/08/29 08:33:39;;;;;;;2.10;1.00;;;38.90;39.50;;;;;;4953060;29;20635;-76
2022/08/29 08:36:24;;;;;;;2.77;0.90;;;39.10;38.90;;;;;;4952607;29;20580;-77
2022/08/29 08:38:51;;;;;;;2.07;0.70;;;39.30;38.70;;;;;;4935243;29;20980;-78
2022/08/29 08:41:32;;;;;;;2.10;1.00;;;39.50;38.80;;;;;;4952295;28;20669;-76
2022/08/29 08:44:12;;;;;;;2.30;0.80;;;39.70;38.30;;;;;;4952794;29;20579;-77
2022/08/29 08:46:42;;;;;;;2.50;1.17;;;39.80;37.70;;;;;;4952719;29;20626;-77
2022/08/29 08:49:19;;;;;;;5.10;1.53;;;39.60;34.70;;;;;;4952662;29;21141;-77
2022/08/29 08:51:57;;;;;;;3.30;1.00;;;39.60;35.60;;;;;;4952638;29;20583;-78
2022/08/29 08:54:26;;;;;;;2.83;1.10;;;39.80;35.70;;;;;;4935322;29;20674;-73
2022/08/29 08:57:03;;;;;;;2.50;0.87;;;39.70;34.60;;;;;;4952489;29;20580;-73
2022/08/29 08:59:39;;;;;;;3.07;1.00;;;39.60;34.70;;;;;;4952426;29;20570;-74
2022/08/29 09:02:41;;;;;;;2.87;1.00;;;39.70;34.50;;;;;;4935211;29;20572;-74
2022/08/29 09:05:26;;;;;;;5.63;0.97;;;39.90;34.20;;;;;;4952221;29;20580;-73
2022/08/29 09:08:00;;;;;;;2.53;1.10;;;40.10;32.50;;;;;;4952894;29;20649;-73
2022/08/29 09:10:44;;;;;;;2.73;1.10;;;39.90;33.80;;;;;;4952192;29;20614;-74
2022/08/29 09:13:17;;;;;;;3.90;1.27;;;39.80;32.60;;;;;;4932731;29;20666;-73
2022/08/29 09:15:47;;;;;;;2.00;1.30;;;39.80;33.60;;;;;;4957894;28;20638;-73
2022/08/29 09:18:40;;;;;;;5.00;1.20;;;39.90;33.20;;;;;;4951374;28;20941;-73
2022/08/29 09:21:20;;;;;;;2.40;1.13;;;39.70;31.10;;;;;;4962466;28;20607;-72
2022/08/29 09:23:48;;;;;;;3.90;1.43;;;39.70;32.00;;;;;;4971768;28;21117;-73
2022/08/29 09:26:17;;;;;;;2.70;1.10;;;39.70;32.50;;;;;;4971442;28;20674;-73
2022/08/29 09:28:43;;;;;;;2.73;1.17;;;39.50;31.40;;;;;;4942383;29;21065;-73
2022/08/29 09:31:26;;;;;;;2.87;1.00;;;39.10;31.40;;;;;;4934237;29;20639;-74
2022/08/29 09:34:06;;;;;;;2.77;1.20;;;39.00;32.30;;;;;;4953397;28;20215;-73
2022/08/29 09:36:41;;;;;;;5.83;1.20;;;39.00;30.30;;;;;;4955534;29;20586;-73
2022/08/29 09:39:18;;;;;;;1.60;0.80;;;39.00;32.30;;;;;;4938546;29;21164;-73
2022/08/29 09:41:49;;;;;;;2.80;0.90;;;39.20;31.80;;;;;;4955388;28;20634;-73
2022/08/29 09:44:21;;;;;;;1.53;0.70;;;39.30;32.00;;;;;;4955761;29;20583;-73
2022/08/29 09:47:04;;;;;;;1.97;0.83;;;39.40;31.50;;;;;;4938042;29;20682;-73
2022/08/29 09:49:30;;;;;;;2.50;1.10;;;39.70;32.30;;;;;;4937567;29;20589;-74
2022/08/29 09:52:16;;;;;;;2.20;0.97;;;39.90;32.10;;;;;;4942341;28;20646;-73
2022/08/29 09:54:43;;;;;;;2.07;1.00;;;40.10;31.80;;;;;;4967254;28;21103;-73
2022/08/29 09:57:18;;;;;;;11.53;1.00;;;40.10;31.20;;;;;;4955337;29;20578;-73
2022/08/29 09:59:47;;;;;;;2.53;0.90;;;40.10;31.10;;;;;;4955248;28;21008;-73
2022/08/29 10:02:26;;;;;;;1.80;0.87;;;40.10;30.90;;;;;;4955172;29;20564;-73
2022/08/29 10:05:09;;;;;;;1.60;0.80;;;40.20;30.90;;;;;;4937965;29;20958;-73
2022/08/29 10:07:49;;;;;;;2.23;0.87;;;40.30;31.10;;;;;;4955183;29;20917;-74
2022/08/29 10:10:16;;;;;;;4.47;0.90;;;40.30;30.50;;;;;;4937980;29;20615;-73
2022/08/29 10:13:10;;;;;;;1.40;0.80;;;40.30;30.10;;;;;;4955003;29;21004;-73
2022/08/29 10:16:00;;;;;;;1.80;0.90;;;40.40;30.00;;;;;;4921972;29;20592;-73
2022/08/29 10:19:14;;;;;;;3.10;1.03;;;40.50;30.00;;;;;;4954791;29;20572;-73
2022/08/29 10:22:12;;;;;;;3.93;0.80;;;40.20;30.00;;;;;;4933255;29;20633;-73
2022/08/29 10:25:03;;;;;;;2.33;1.00;;;40.20;30.20;;;;;;4961391;28;20928;-74
2022/08/29 10:27:48;;;;;;;2.37;0.90;;;40.20;30.00;;;;;;4954263;29;20672;-74
2022/08/29 10:30:20;;;;;;;3.33;0.80;;;40.20;30.00;;;;;;4947086;28;20627;-73
2022/08/29 10:32:54;;;;;;;1.83;0.93;;;40.00;29.80;;;;;;4954516;29;20589;-73
2022/08/29 10:35:55;;;;;;;4.00;0.93;;;39.60;29.50;;;;;;4955043;29;20977;-72
2022/08/29 10:38:46;;;;;;;2.20;0.93;;;39.10;29.50;;;;;;4955109;29;20572;-73
2022/08/29 10:41:31;;;;;;;1.80;0.80;;;38.70;29.90;;;;;;4951357;28;20715;-73
2022/08/29 10:44:00;;;;;;;5.70;1.00;;;38.20;29.40;;;;;;4953256;29;20591;-74
2022/08/29 10:46:55;;;;;;;1.70;0.80;;;37.60;29.30;;;;;;4937674;29;20576;-73
2022/08/29 10:49:29;;;;;;;4.40;1.20;;;37.10;29.70;;;;;;4954479;29;20615;-74
2022/08/29 10:52:21;;;;;;;1.83;0.93;;;36.80;29.90;;;;;;4954664;29;20571;-73
2022/08/29 10:55:02;;;;;;;2.73;1.20;;;36.60;30.40;;;;;;4954540;29;20702;-73
2022/08/29 10:57:46;;;;;;;2.27;1.03;;;36.50;30.60;;;;;;4954474;29;20587;-73
2022/08/29 11:00:23;;;;;;;2.80;1.10;;;36.00;30.50;;;;;;4954345;28;20650;-73
2022/08/29 11:02:56;;;;;;;1.67;0.77;;;35.80;30.20;;;;;;4953249;28;20964;-73
2022/08/29 11:05:28;;;;;;;3.37;0.90;;;35.40;30.30;;;;;;4968704;28;20671;-73
2022/08/29 11:08:04;;;;;;;2.30;1.00;;;35.10;30.20;;;;;;4962457;28;20583;-73
2022/08/29 11:10:39;;;;;;;2.07;0.90;;;34.80;30.60;;;;;;4954330;28;20620;-74
2022/08/29 11:13:14;;;;;;;2.07;0.90;;;34.60;30.90;;;;;;4954206;29;20590;-73
2022/08/29 11:16:07;;;;;;;2.50;1.00;;;34.40;31.20;;;;;;4949750;29;20969;-73
2022/08/29 11:18:47;;;;;;;3.40;0.90;;;34.40;31.40;;;;;;4945267;28;21147;-73
2022/08/29 11:21:35;;;;;;;3.30;1.20;;;34.40;31.40;;;;;;4951239;28;20626;-73
2022/08/29 11:24:02;;;;;;;2.10;0.90;;;34.40;31.70;;;;;;4962195;28;20587;-73
2022/08/29 11:26:51;;;;;;;2.97;1.00;;;34.50;31.90;;;;;;4948778;28;20615;-73
2022/08/29 11:29:35;;;;;;;2.23;1.00;;;34.60;31.90;;;;;;4959467;28;20967;-73
2022/08/29 11:32:40;;;;;;;3.23;1.30;;;34.60;31.60;;;;;;4953844;28;20602;-74
2022/08/29 11:35:19;;;;;;;2.03;1.03;;;34.70;31.70;;;;;;4936543;29;20697;-74
2022/08/29 11:38:07;;;;;;;2.80;1.20;;;34.80;31.60;;;;;;4936306;28;20662;-73
2022/08/29 11:40:51;;;;;;;2.97;1.00;;;34.70;31.40;;;;;;4956279;28;20709;-73
2022/08/29 11:43:23;;;;;;;2.30;1.10;;;34.70;31.50;;;;;;4941224;29;20600;-73
2022/08/29 11:46:06;;;;;;;2.40;1.10;;;34.80;31.50;;;;;;4934643;29;20612;-72
2022/08/29 11:48:37;;;;;;;2.70;0.93;;;34.80;31.40;;;;;;4953512;29;20589;-72
2022/08/29 11:51:36;;;;;;;5.40;1.00;;;34.90;31.70;;;;;;4950348;28;20667;-73
2022/08/29 11:54:34;;;;;;;4.13;1.20;;;34.90;31.00;;;;;;4952334;29;20624;-73
2022/08/29 11:57:00;;;;;;;1.90;1.00;;;34.90;31.70;;;;;;4929825;28;20595;-72
2022/08/29 11:59:47;;;;;;;2.70;1.57;;;35.10;32.00;;;;;;4972360;28;20558;-73
2022/08/29 12:02:30;;;;;;;3.70;1.10;;;35.20;31.40;;;;;;4934132;29;20569;-73
2022/08/29 12:04:58;;;;;;;2.13;0.90;;;35.20;31.30;;;;;;4934184;29;20659;-73
2022/08/29 12:07:53;;;;;;;2.70;1.00;;;35.20;31.30;;;;;;4934052;29;20685;-74
2022/08/29 12:10:18;;;;;;;2.10;1.00;;;35.00;30.90;;;;;;4933765;29;20632;-73
2022/08/29 12:12:48;;;;;;;2.43;0.97;;;35.00;30.80;;;;;;4916704;29;20608;-72
2022/08/29 12:15:26;;;;;;;2.23;1.07;;;34.80;30.70;;;;;;4934201;29;20287;-73
2022/08/29 12:17:54;;;;;;;2.53;1.27;;;34.60;30.60;;;;;;4933930;29;20584;-73
2022/08/29 12:20:29;;;;;;;3.77;0.80;;;34.50;30.80;;;;;;4934102;29;20950;-73
2022/08/29 12:22:58;;;;;;;2.10;0.90;;;34.30;30.80;;;;;;4932458;29;20585;-73
2022/08/29 12:25:26;;;;;;;1.60;0.73;;;34.30;31.00;;;;;;4933990;29;20657;-73
2022/08/29 12:28:13;;;;;;;2.13;1.07;;;34.30;31.30;;;;;;4933765;29;20977;-73
2022/08/29 12:30:48;;;;;;;1.63;0.87;;;34.30;31.10;;;;;;4934335;28;20624;-73
2022/08/29 12:33:31;;;;;;;3.20;1.40;;;34.20;31.20;;;;;;4953334;28;21206;-73
2022/08/29 12:36:09;;;;;;;2.50;1.20;;;34.10;30.90;;;;;;4962529;28;20620;-73
2022/08/29 12:38:49;;;;;;;2.13;1.10;;;33.80;30.90;;;;;;4964077;28;20604;-73
2022/08/29 12:41:48;;;;;;;3.53;1.20;;;33.60;30.70;;;;;;4932241;29;20652;-72
2022/08/29 12:44:18;;;;;;;2.20;0.90;;;33.40;30.80;;;;;;4933639;29;20575;-73
2022/08/29 12:46:49;;;;;;;3.07;1.10;;;33.20;31.00;;;;;;4917124;29;20670;-73
2022/08/29 12:49:14;;;;;;;2.00;0.90;;;33.00;31.10;;;;;;4916601;29;20687;-79
2022/08/29 12:51:42;;;;;;;2.10;1.00;;;32.90;31.20;;;;;;4933568;29;20733;-77
2022/08/29 12:54:11;;;;;;;3.50;1.40;;;32.70;31.30;;;;;;4933742;29;20214;-77
2022/08/29 12:56:42;;;;;;;3.20;1.80;;;32.50;31.40;;;;;;4933571;29;20573;-78
2022/08/29 12:59:16;;;;;;;4.30;1.40;;;32.30;31.30;;;;;;4933720;29;20573;-78
2022/08/29 13:01:47;;;;;;;2.30;1.37;;;32.10;31.50;;;;;;4900822;29;20612;-77
2022/08/29 13:04:18;;;;;;;3.60;1.50;;;31.80;31.30;;;;;;4933899;29;20587;-78
2022/08/29 13:06:59;;;;;;;4.73;1.30;;;31.60;31.30;;;;;;4932511;29;20580;-77
2022/08/29 13:09:28;;;;;;;3.80;1.43;;;31.30;31.80;;;;;;4918002;29;20634;-78
2022/08/29 13:12:19;;;;;;;2.83;1.07;;;30.90;31.90;;;;;;4945095;29;20933;-78